sensor_id;sensor_type;location;lat;lon;timestamp;temperature;humidity
13123;DHT22;6627;50.920;12.050;2022-10-16T00:01:39;15.40;99.90
13123;DHT22;6627;50.920;12.050;2022-10-16T00:04:08;15.40;99.90
13123;DHT22;6627;50.920;12.050;2022-10-16T00:06:37;15.40;99.90
13123;DHT22;6627;50.920;12.050;2022-10-16T00:09:06;15.40;99.90
13123;DHT22;6627;50.920;12.050;2022-10-16T00:11:35;15.50;99.90
13123;DHT22;6627;50.920;12.050;2022-10-16T00:14:08;15.50;99.90
13123;DHT22;6627;50.920;12.050;2022-10-16T00:16:40;15.50;99.90
13123;DHT22;6627;50.920;12.050;2022-10-16T00:19:09;15.60;99.90
13123;DHT22;6627;50.920;12.050;2022-10-16T00:21:38;15.50;99.90
13123;DHT22;6627;50.920;12.050;2022-10-16T00:24:08;15.50;99.90
13123;DHT22;6627;50.920;12.050;2022-10-16T00:26:37;15.40;99.90
13123;DHT22;6627;50.920;12.050;2022-10-16T00:29:08;15.40;99.90
13123;DHT22;6627;50.920;12.050;2022-10-16T00:31:35;15.40;99.90
13123;DHT22;6627;50.920;12.050;2022-10-16T00:34:03;15.40;99.90
13123;DHT22;6627;50.920;12.050;2022-10-16T00:36:31;15.30;99.90
13123;DHT22;6627;50.920;12.050;2022-10-16T00:38:58;15.30;99.90
13123;DHT22;6627;50.920;12.050;2022-10-16T00:41:27;15.30;99.90
13123;DHT22;6627;50.920;12.050;2022-10-16T00:43:56;15.30;99.90
13123;DHT22;6627;50.920;12.050;2022-10-16T00:46:29;15.20;99.90
13123;DHT22;6627;50.920;12.050;2022-10-16T00:49:07;15.10;99.90
13123;DHT22;6627;50.920;12.050;2022-10-16T00:51:38;15.10;99.90
13123;DHT22;6627;50.920;12.050;2022-10-16T00:54:11;15.10;99.90
13123;DHT22;6627;50.920;12.050;2022-10-16T00:56:41;14.90;99.90
13123;DHT22;6627;50.920;12.050;2022-10-16T00:59:15;14.90;99.90
13123;DHT22;6627;50.920;12.050;2022-10-16T01:01:46;14.90;99.90
13123;DHT22;6627;50.920;12.050;2022-10-16T01:04:14;14.90;99.90
13123;DHT22;6627;50.920;12.050;2022-10-16T01:06:46;14.90;99.90
13123;DHT22;6627;50.920;12.050;2022-10-16T01:09:25;14.90;99.90
13123;DHT22;6627;50.920;12.050;2022-10-16T01:12:06;14.90;99.90
13123;DHT22;6627;50.920;12.050;2022-10-16T01:14:41;14.90;99.90
13123;DHT22;6627;50.920;12.050;2022-10-16T01:17:19;14.80;99.90
13123;DHT22;6627;50.920;12.050;2022-10-16T01:20:03;14.90;99.90
13123;DHT22;6627;50.920;12.050;2022-10-16T01:22:44;14.90;99.90
13123;DHT22;6627;50.920;12.050;2022-10-16T01:25:28;14.90;99.90
13123;DHT22;6627;50.920;12.050;2022-10-16T01:28:09;14.80;99.90
13123;DHT22;6627;50.920;12.050;2022-10-16T01:30:41;14.80;99.90
13123;DHT22;6627;50.920;12.050;2022-10-16T01:33:16;14.90;99.90
13123;DHT22;6627;50.920;12.050;2022-10-16T01:35:51;14.80;99.90
13123;DHT22;6627;50.920;12.050;2022-10-16T01:38:23;14.80;99.90
13123;DHT22;6627;50.920;12.050;2022-10-16T01:40:59;14.70;99.90
13123;DHT22;6627;50.920;12.050;2022-10-16T01:43:36;14.70;99.90
13123;DHT22;6627;50.920;12.050;2022-10-16T01:46:08;14.60;99.90
13123;DHT22;6627;50.920;12.050;2022-10-16T01:48:37;14.60;99.90
13123;DHT22;6627;50.920;12.050;2022-10-16T01:51:07;14.60;99.90
13123;DHT22;6627;50.920;12.050;2022-10-16T01:53:44;14.60;99.90
13123;DHT22;6627;50.920;12.050;2022-10-16T01:56:18;14.60;99.90
13123;DHT22;6627;50.920;12.050;2022-10-16T01:58:52;14.60;99.90
13123;DHT22;6627;50.920;12.050;2022-10-16T02:01:24;14.60;99.90
13123;DHT22;6627;50.920;12.050;2022-10-16T02:03:55;14.50;99.90
13123;DHT22;6627;50.920;12.050;2022-10-16T02:06:28;14.60;99.90
13123;DHT22;6627;50.920;12.050;2022-10-16T02:08:56;14.70;99.90
13123;DHT22;6627;50.920;12.050;2022-10-16T02:11:24;14.70;99.90
13123;DHT22;6627;50.920;12.050;2022-10-16T02:13:57;14.70;99.90
13123;DHT22;6627;50.920;12.050;2022-10-16T02:16:33;14.70;99.90
13123;DHT22;6627;50.920;12.050;2022-10-16T02:19:02;14.70;99.90
13123;DHT22;6627;50.920;12.050;2022-10-16T02:21:34;14.80;99.90
13123;DHT22;6627;50.920;12.050;2022-10-16T02:24:11;14.80;99.90
13123;DHT22;6627;50.920;12.050;2022-10-16T02:26:50;14.80;99.90
13123;DHT22;6627;50.920;12.050;2022-10-16T02:29:27;14.70;99.90
13123;DHT22;6627;50.920;12.050;2022-10-16T02:31:58;14.60;99.90
13123;DHT22;6627;50.920;12.050;2022-10-16T02:34:31;14.50;99.90
13123;DHT22;6627;50.920;12.050;2022-10-16T02:37:01;14.40;99.90
13123;DHT22;6627;50.920;12.050;2022-10-16T02:39:33;14.50;99.90
13123;DHT22;6627;50.920;12.050;2022-10-16T02:42:01;14.40;99.90
13123;DHT22;6627;50.920;12.050;2022-10-16T02:44:30;14.40;99.90
13123;DHT22;6627;50.920;12.050;2022-10-16T02:46:57;14.40;99.90
13123;DHT22;6627;50.920;12.050;2022-10-16T02:49:25;14.30;99.90
13123;DHT22;6627;50.920;12.050;2022-10-16T02:51:52;14.30;99.90
13123;DHT22;6627;50.920;12.050;2022-10-16T02:54:19;14.30;99.90
13123;DHT22;6627;50.920;12.050;2022-10-16T02:56:46;14.30;99.90
13123;DHT22;6627;50.920;12.050;2022-10-16T02:59:14;14.20;99.90
13123;DHT22;6627;50.920;12.050;2022-10-16T03:01:42;14.20;99.90
13123;DHT22;6627;50.920;12.050;2022-10-16T03:04:10;14.20;99.90
13123;DHT22;6627;50.920;12.050;2022-10-16T03:06:37;14.10;99.90
13123;DHT22;6627;50.920;12.050;2022-10-16T03:09:04;14.10;99.90
13123;DHT22;6627;50.920;12.050;2022-10-16T03:11:32;14.10;99.90
13123;DHT22;6627;50.920;12.050;2022-10-16T03:13:59;14.10;99.90
13123;DHT22;6627;50.920;12.050;2022-10-16T03:16:26;14.10;99.90
13123;DHT22;6627;50.920;12.050;2022-10-16T03:18:55;14.10;99.90
13123;DHT22;6627;50.920;12.050;2022-10-16T03:21:22;14.20;99.90
13123;DHT22;6627;50.920;12.050;2022-10-16T03:23:49;14.20;99.90
13123;DHT22;6627;50.920;12.050;2022-10-16T03:26:17;14.20;99.90
13123;DHT22;6627;50.920;12.050;2022-10-16T03:28:44;14.20;99.90
13123;DHT22;6627;50.920;12.050;2022-10-16T03:31:11;14.10;99.90
13123;DHT22;6627;50.920;12.050;2022-10-16T03:33:38;14.10;99.90
13123;DHT22;6627;50.920;12.050;2022-10-16T03:36:07;14.20;99.90
13123;DHT22;6627;50.920;12.050;2022-10-16T03:38:35;14.20;99.90
13123;DHT22;6627;50.920;12.050;2022-10-16T03:41:02;14.20;99.90
13123;DHT22;6627;50.920;12.050;2022-10-16T03:43:29;14.20;99.90
13123;DHT22;6627;50.920;12.050;2022-10-16T03:45:57;14.20;99.90
13123;DHT22;6627;50.920;12.050;2022-10-16T03:48:24;14.20;99.90
13123;DHT22;6627;50.920;12.050;2022-10-16T03:50:51;14.20;99.90
13123;DHT22;6627;50.920;12.050;2022-10-16T03:53:20;14.10;99.90
13123;DHT22;6627;50.920;12.050;2022-10-16T03:55:47;14.20;99.90
13123;DHT22;6627;50.920;12.050;2022-10-16T03:58:15;14.20;99.90
13123;DHT22;6627;50.920;12.050;2022-10-16T04:00:43;14.30;99.90
13123;DHT22;6627;50.920;12.050;2022-10-16T04:03:12;14.30;99.90
13123;DHT22;6627;50.920;12.050;2022-10-16T04:05:39;14.30;99.90
13123;DHT22;6627;50.920;12.050;2022-10-16T04:08:06;14.30;99.90
13123;DHT22;6627;50.920;12.050;2022-10-16T04:10:35;14.30;99.90
13123;DHT22;6627;50.920;12.050;2022-10-16T04:13:02;14.30;99.90
13123;DHT22;6627;50.920;12.050;2022-10-16T04:15:29;14.20;99.90
13123;DHT22;6627;50.920;12.050;2022-10-16T04:17:56;14.20;99.90
13123;DHT22;6627;50.920;12.050;2022-10-16T04:20:23;14.30;99.90
13123;DHT22;6627;50.920;12.050;2022-10-16T04:22:51;14.30;99.90
13123;DHT22;6627;50.920;12.050;2022-10-16T04:25:18;14.30;99.90
13123;DHT22;6627;50.920;12.050;2022-10-16T04:27:47;14.30;99.90
13123;DHT22;6627;50.920;12.050;2022-10-16T04:30:14;14.20;99.90
13123;DHT22;6627;50.920;12.050;2022-10-16T04:32:41;14.20;99.90
13123;DHT22;6627;50.920;12.050;2022-10-16T04:35:09;14.30;99.90
13123;DHT22;6627;50.920;12.050;2022-10-16T04:37:36;14.30;99.90
13123;DHT22;6627;50.920;12.050;2022-10-16T04:40:04;14.20;99.90
13123;DHT22;6627;50.920;12.050;2022-10-16T04:42:32;14.20;99.90
13123;DHT22;6627;50.920;12.050;2022-10-16T04:45:00;14.20;99.90
13123;DHT22;6627;50.920;12.050;2022-10-16T04:47:28;14.20;99.90
13123;DHT22;6627;50.920;12.050;2022-10-16T04:49:56;14.20;99.90
13123;DHT22;6627;50.920;12.050;2022-10-16T04:52:23;14.20;99.90
13123;DHT22;6627;50.920;12.050;2022-10-16T04:54:51;14.00;99.90
13123;DHT22;6627;50.920;12.050;2022-10-16T04:57:19;14.10;99.90
13123;DHT22;6627;50.920;12.050;2022-10-16T04:59:46;14.00;99.90
13123;DHT22;6627;50.920;12.050;2022-10-16T05:02:15;13.90;99.90
13123;DHT22;6627;50.920;12.050;2022-10-16T05:04:42;13.90;99.90
13123;DHT22;6627;50.920;12.050;2022-10-16T05:07:10;13.90;99.90
13123;DHT22;6627;50.920;12.050;2022-10-16T05:09:37;13.90;99.90
13123;DHT22;6627;50.920;12.050;2022-10-16T05:12:04;14.00;99.90
13123;DHT22;6627;50.920;12.050;2022-10-16T05:14:32;14.00;99.90
13123;DHT22;6627;50.920;12.050;2022-10-16T05:16:59;14.10;99.90
13123;DHT22;6627;50.920;12.050;2022-10-16T05:19:28;14.10;99.90
13123;DHT22;6627;50.920;12.050;2022-10-16T05:21:55;14.20;99.90
13123;DHT22;6627;50.920;12.050;2022-10-16T05:24:23;14.20;99.90
13123;DHT22;6627;50.920;12.050;2022-10-16T05:26:50;14.20;99.90
13123;DHT22;6627;50.920;12.050;2022-10-16T05:29:18;14.30;99.90
13123;DHT22;6627;50.920;12.050;2022-10-16T05:31:46;14.30;99.90
13123;DHT22;6627;50.920;12.050;2022-10-16T05:34:13;14.30;99.90
13123;DHT22;6627;50.920;12.050;2022-10-16T05:36:41;14.30;99.90
13123;DHT22;6627;50.920;12.050;2022-10-16T05:39:11;14.30;99.90
13123;DHT22;6627;50.920;12.050;2022-10-16T05:41:38;14.30;99.90
13123;DHT22;6627;50.920;12.050;2022-10-16T05:44:06;14.30;99.90
13123;DHT22;6627;50.920;12.050;2022-10-16T05:46:33;14.30;99.90
13123;DHT22;6627;50.920;12.050;2022-10-16T05:49:00;14.30;99.90
13123;DHT22;6627;50.920;12.050;2022-10-16T05:51:28;14.30;99.90
13123;DHT22;6627;50.920;12.050;2022-10-16T05:53:57;14.30;99.90
13123;DHT22;6627;50.920;12.050;2022-10-16T05:56:24;14.30;99.90
13123;DHT22;6627;50.920;12.050;2022-10-16T05:58:51;14.30;99.90
13123;DHT22;6627;50.920;12.050;2022-10-16T06:01:19;14.30;99.90
13123;DHT22;6627;50.920;12.050;2022-10-16T06:03:49;14.30;99.90
13123;DHT22;6627;50.920;12.050;2022-10-16T06:06:19;14.30;99.90
13123;DHT22;6627;50.920;12.050;2022-10-16T06:08:48;14.40;99.90
13123;DHT22;6627;50.920;12.050;2022-10-16T06:11:19;14.40;99.90
13123;DHT22;6627;50.920;12.050;2022-10-16T06:13:50;14.40;99.90
13123;DHT22;6627;50.920;12.050;2022-10-16T06:16:18;14.40;99.90
13123;DHT22;6627;50.920;12.050;2022-10-16T06:18:45;14.40;99.90
13123;DHT22;6627;50.920;12.050;2022-10-16T06:21:16;14.40;99.90
13123;DHT22;6627;50.920;12.050;2022-10-16T06:23:44;14.50;99.90
13123;DHT22;6627;50.920;12.050;2022-10-16T06:26:14;14.50;99.90
13123;DHT22;6627;50.920;12.050;2022-10-16T06:28:43;14.60;99.90
13123;DHT22;6627;50.920;12.050;2022-10-16T06:31:12;14.60;99.90
13123;DHT22;6627;50.920;12.050;2022-10-16T06:33:40;14.70;99.90
13123;DHT22;6627;50.920;12.050;2022-10-16T06:36:09;14.70;99.90
13123;DHT22;6627;50.920;12.050;2022-10-16T06:38:38;14.70;99.90
13123;DHT22;6627;50.920;12.050;2022-10-16T06:41:06;14.70;99.90
13123;DHT22;6627;50.920;12.050;2022-10-16T06:43:36;14.80;99.90
13123;DHT22;6627;50.920;12.050;2022-10-16T06:46:06;14.80;99.90
13123;DHT22;6627;50.920;12.050;2022-10-16T06:48:34;14.90;99.90
13123;DHT22;6627;50.920;12.050;2022-10-16T06:51:03;14.90;99.90
13123;DHT22;6627;50.920;12.050;2022-10-16T06:53:33;15.00;99.90
13123;DHT22;6627;50.920;12.050;2022-10-16T06:56:07;15.00;99.90
13123;DHT22;6627;50.920;12.050;2022-10-16T06:58:35;15.10;99.90
13123;DHT22;6627;50.920;12.050;2022-10-16T07:01:02;15.10;99.90
13123;DHT22;6627;50.920;12.050;2022-10-16T07:03:31;15.20;99.90
13123;DHT22;6627;50.920;12.050;2022-10-16T07:06:01;15.20;99.90
13123;DHT22;6627;50.920;12.050;2022-10-16T07:08:31;15.30;99.90
13123;DHT22;6627;50.920;12.050;2022-10-16T07:11:00;15.50;99.90
13123;DHT22;6627;50.920;12.050;2022-10-16T07:13:28;15.60;99.90
13123;DHT22;6627;50.920;12.050;2022-10-16T07:15:56;15.60;99.90
13123;DHT22;6627;50.920;12.050;2022-10-16T07:18:24;15.70;99.90
13123;DHT22;6627;50.920;12.050;2022-10-16T07:21:03;15.70;99.90
13123;DHT22;6627;50.920;12.050;2022-10-16T07:23:31;15.70;99.90
13123;DHT22;6627;50.920;12.050;2022-10-16T07:25:58;15.70;99.90
13123;DHT22;6627;50.920;12.050;2022-10-16T07:28:26;15.80;99.90
13123;DHT22;6627;50.920;12.050;2022-10-16T07:30:53;15.90;99.90
13123;DHT22;6627;50.920;12.050;2022-10-16T07:33:20;16.00;99.90
13123;DHT22;6627;50.920;12.050;2022-10-16T07:35:50;16.00;99.90
13123;DHT22;6627;50.920;12.050;2022-10-16T07:38:19;16.00;99.90
13123;DHT22;6627;50.920;12.050;2022-10-16T07:40:48;16.10;99.90
13123;DHT22;6627;50.920;12.050;2022-10-16T07:43:22;16.10;99.90
13123;DHT22;6627;50.920;12.050;2022-10-16T07:45:50;16.10;99.90
13123;DHT22;6627;50.920;12.050;2022-10-16T07:48:19;16.10;99.90
13123;DHT22;6627;50.920;12.050;2022-10-16T07:50:46;16.20;99.90
13123;DHT22;6627;50.920;12.050;2022-10-16T07:53:16;16.20;99.90
13123;DHT22;6627;50.920;12.050;2022-10-16T07:55:43;16.20;99.90
13123;DHT22;6627;50.920;12.050;2022-10-16T07:58:10;16.30;99.90
13123;DHT22;6627;50.920;12.050;2022-10-16T08:00:37;16.50;99.90
13123;DHT22;6627;50.920;12.050;2022-10-16T08:03:05;16.60;99.90
13123;DHT22;6627;50.920;12.050;2022-10-16T08:05:32;16.70;99.90
13123;DHT22;6627;50.920;12.050;2022-10-16T08:08:01;16.70;99.90
13123;DHT22;6627;50.920;12.050;2022-10-16T08:10:30;16.80;99.90
13123;DHT22;6627;50.920;12.050;2022-10-16T08:12:57;16.80;99.90
13123;DHT22;6627;50.920;12.050;2022-10-16T08:15:25;16.80;99.90
13123;DHT22;6627;50.920;12.050;2022-10-16T08:17:56;16.80;99.90
13123;DHT22;6627;50.920;12.050;2022-10-16T08:20:26;16.90;99.90
13123;DHT22;6627;50.920;12.050;2022-10-16T08:22:54;16.90;99.90
13123;DHT22;6627;50.920;12.050;2022-10-16T08:25:23;16.90;99.90
13123;DHT22;6627;50.920;12.050;2022-10-16T08:27:52;16.90;99.90
13123;DHT22;6627;50.920;12.050;2022-10-16T08:30:21;16.90;99.90
13123;DHT22;6627;50.920;12.050;2022-10-16T08:32:49;17.00;99.90
13123;DHT22;6627;50.920;12.050;2022-10-16T08:35:17;17.00;99.90
13123;DHT22;6627;50.920;12.050;2022-10-16T08:37:44;17.00;99.90
13123;DHT22;6627;50.920;12.050;2022-10-16T08:40:17;17.10;99.90
13123;DHT22;6627;50.920;12.050;2022-10-16T08:42:57;17.10;99.90
13123;DHT22;6627;50.920;12.050;2022-10-16T08:45:55;17.20;99.90
13123;DHT22;6627;50.920;12.050;2022-10-16T08:48:39;17.30;99.90
13123;DHT22;6627;50.920;12.050;2022-10-16T08:51:17;17.30;99.90
13123;DHT22;6627;50.920;12.050;2022-10-16T08:53:53;17.40;99.90
13123;DHT22;6627;50.920;12.050;2022-10-16T08:56:23;17.40;99.90
13123;DHT22;6627;50.920;12.050;2022-10-16T08:58:53;17.40;99.90
13123;DHT22;6627;50.920;12.050;2022-10-16T09:01:22;17.40;99.90
13123;DHT22;6627;50.920;12.050;2022-10-16T09:04:01;17.40;99.90
13123;DHT22;6627;50.920;12.050;2022-10-16T09:06:47;17.40;99.90
13123;DHT22;6627;50.920;12.050;2022-10-16T09:09:43;17.50;99.90
13123;DHT22;6627;50.920;12.050;2022-10-16T09:12:24;17.60;99.90
13123;DHT22;6627;50.920;12.050;2022-10-16T09:15:05;17.70;99.90
13123;DHT22;6627;50.920;12.050;2022-10-16T09:17:48;17.70;99.90
13123;DHT22;6627;50.920;12.050;2022-10-16T09:20:30;17.70;99.90
13123;DHT22;6627;50.920;12.050;2022-10-16T09:23:17;17.70;99.90
13123;DHT22;6627;50.920;12.050;2022-10-16T09:25:49;17.70;99.90
13123;DHT22;6627;50.920;12.050;2022-10-16T09:28:18;17.80;99.90
13123;DHT22;6627;50.920;12.050;2022-10-16T09:30:47;17.80;99.90
13123;DHT22;6627;50.920;12.050;2022-10-16T09:33:17;17.80;99.90
13123;DHT22;6627;50.920;12.050;2022-10-16T09:35:50;17.90;99.90
13123;DHT22;6627;50.920;12.050;2022-10-16T09:38:25;17.90;99.90
13123;DHT22;6627;50.920;12.050;2022-10-16T09:40:55;18.00;99.90
13123;DHT22;6627;50.920;12.050;2022-10-16T09:43:27;18.00;99.90
13123;DHT22;6627;50.920;12.050;2022-10-16T09:46:04;18.20;99.90
13123;DHT22;6627;50.920;12.050;2022-10-16T09:48:37;18.30;99.90
13123;DHT22;6627;50.920;12.050;2022-10-16T09:51:17;18.30;99.90
13123;DHT22;6627;50.920;12.050;2022-10-16T09:53:47;18.50;99.90
13123;DHT22;6627;50.920;12.050;2022-10-16T09:56:22;18.60;99.90
13123;DHT22;6627;50.920;12.050;2022-10-16T09:58:51;18.80;99.90
13123;DHT22;6627;50.920;12.050;2022-10-16T10:01:23;18.80;99.90
13123;DHT22;6627;50.920;12.050;2022-10-16T10:03:58;18.80;99.90
13123;DHT22;6627;50.920;12.050;2022-10-16T10:06:30;18.90;99.90
13123;DHT22;6627;50.920;12.050;2022-10-16T10:09:04;18.90;99.90
13123;DHT22;6627;50.920;12.050;2022-10-16T10:11:52;19.00;99.90
13123;DHT22;6627;50.920;12.050;2022-10-16T10:14:23;19.00;99.90
13123;DHT22;6627;50.920;12.050;2022-10-16T10:17:13;19.00;99.90
13123;DHT22;6627;50.920;12.050;2022-10-16T10:19:47;19.00;99.90
13123;DHT22;6627;50.920;12.050;2022-10-16T10:22:25;19.10;99.90
13123;DHT22;6627;50.920;12.050;2022-10-16T10:25:16;19.10;99.90
13123;DHT22;6627;50.920;12.050;2022-10-16T10:28:01;19.20;99.90
13123;DHT22;6627;50.920;12.050;2022-10-16T10:30:46;19.20;99.90
13123;DHT22;6627;50.920;12.050;2022-10-16T10:33:27;19.20;99.90
13123;DHT22;6627;50.920;12.050;2022-10-16T10:36:09;19.20;99.90
13123;DHT22;6627;50.920;12.050;2022-10-16T10:38:49;19.20;99.90
13123;DHT22;6627;50.920;12.050;2022-10-16T10:41:34;19.20;99.90
13123;DHT22;6627;50.920;12.050;2022-10-16T10:44:32;19.20;99.90
13123;DHT22;6627;50.920;12.050;2022-10-16T10:47:27;19.30;99.90
13123;DHT22;6627;50.920;12.050;2022-10-16T10:50:17;19.30;99.90
13123;DHT22;6627;50.920;12.050;2022-10-16T10:53:02;19.40;99.90
13123;DHT22;6627;50.920;12.050;2022-10-16T10:55:40;19.60;99.90
13123;DHT22;6627;50.920;12.050;2022-10-16T10:58:42;19.60;99.90
13123;DHT22;6627;50.920;12.050;2022-10-16T11:01:33;19.70;99.90
13123;DHT22;6627;50.920;12.050;2022-10-16T11:07:18;20.00;99.90
13123;DHT22;6627;50.920;12.050;2022-10-16T11:09:53;20.00;99.90
13123;DHT22;6627;50.920;12.050;2022-10-16T11:12:27;20.00;99.90
13123;DHT22;6627;50.920;12.050;2022-10-16T11:15:02;20.00;99.90
13123;DHT22;6627;50.920;12.050;2022-10-16T11:17:39;20.00;99.90
13123;DHT22;6627;50.920;12.050;2022-10-16T11:20:14;20.00;99.90
13123;DHT22;6627;50.920;12.050;2022-10-16T11:22:51;20.00;99.90
13123;DHT22;6627;50.920;12.050;2022-10-16T11:25:25;20.00;99.90
13123;DHT22;6627;50.920;12.050;2022-10-16T11:27:58;20.10;99.90
13123;DHT22;6627;50.920;12.050;2022-10-16T11:30:33;20.10;99.90
13123;DHT22;6627;50.920;12.050;2022-10-16T11:33:20;20.10;99.90
13123;DHT22;6627;50.920;12.050;2022-10-16T11:36:02;20.10;99.90
13123;DHT22;6627;50.920;12.050;2022-10-16T11:38:43;20.20;99.90
13123;DHT22;6627;50.920;12.050;2022-10-16T11:41:22;20.20;99.90
13123;DHT22;6627;50.920;12.050;2022-10-16T11:44:09;20.20;99.90
13123;DHT22;6627;50.920;12.050;2022-10-16T11:46:48;20.20;99.90
13123;DHT22;6627;50.920;12.050;2022-10-16T11:49:25;20.20;99.90
13123;DHT22;6627;50.920;12.050;2022-10-16T11:52:03;20.20;99.90
13123;DHT22;6627;50.920;12.050;2022-10-16T11:54:44;20.10;99.90
13123;DHT22;6627;50.920;12.050;2022-10-16T11:57:21;20.10;99.90
13123;DHT22;6627;50.920;12.050;2022-10-16T11:59:54;20.10;99.90
13123;DHT22;6627;50.920;12.050;2022-10-16T12:02:37;20.10;99.90
13123;DHT22;6627;50.920;12.050;2022-10-16T12:05:22;20.10;99.90
13123;DHT22;6627;50.920;12.050;2022-10-16T12:08:03;20.10;99.90
13123;DHT22;6627;50.920;12.050;2022-10-16T12:10:39;20.10;99.90
13123;DHT22;6627;50.920;12.050;2022-10-16T12:13:29;20.10;99.90
13123;DHT22;6627;50.920;12.050;2022-10-16T12:16:21;20.10;99.90
13123;DHT22;6627;50.920;12.050;2022-10-16T12:19:11;20.10;99.90
13123;DHT22;6627;50.920;12.050;2022-10-16T12:21:42;20.10;99.90
13123;DHT22;6627;50.920;12.050;2022-10-16T12:24:22;20.10;99.90
13123;DHT22;6627;50.920;12.050;2022-10-16T12:26:59;20.10;99.90
13123;DHT22;6627;50.920;12.050;2022-10-16T12:29:34;20.10;99.90
13123;DHT22;6627;50.920;12.050;2022-10-16T12:32:18;20.00;99.90
13123;DHT22;6627;50.920;12.050;2022-10-16T12:34:54;20.00;99.90
13123;DHT22;6627;50.920;12.050;2022-10-16T12:37:24;20.10;99.90
13123;DHT22;6627;50.920;12.050;2022-10-16T12:39:55;20.10;99.90
13123;DHT22;6627;50.920;12.050;2022-10-16T12:42:33;20.20;99.90
13123;DHT22;6627;50.920;12.050;2022-10-16T12:45:01;20.30;99.90
13123;DHT22;6627;50.920;12.050;2022-10-16T12:47:52;20.30;99.90
13123;DHT22;6627;50.920;12.050;2022-10-16T12:50:30;20.40;99.90
13123;DHT22;6627;50.920;12.050;2022-10-16T12:53:00;20.40;99.90
13123;DHT22;6627;50.920;12.050;2022-10-16T12:55:35;20.40;99.90
13123;DHT22;6627;50.920;12.050;2022-10-16T13:01:37;20.60;99.90
13123;DHT22;6627;50.920;12.050;2022-10-16T13:04:37;20.70;99.90
13123;DHT22;6627;50.920;12.050;2022-10-16T13:07:21;20.90;99.90
13123;DHT22;6627;50.920;12.050;2022-10-16T13:10:13;20.80;99.90
13123;DHT22;6627;50.920;12.050;2022-10-16T13:13:07;20.80;99.90
13123;DHT22;6627;50.920;12.050;2022-10-16T13:16:02;20.60;99.90
13123;DHT22;6627;50.920;12.050;2022-10-16T13:18:46;20.60;99.90
13123;DHT22;6627;50.920;12.050;2022-10-16T13:21:33;20.50;99.90
13123;DHT22;6627;50.920;12.050;2022-10-16T13:24:20;20.50;99.90
13123;DHT22;6627;50.920;12.050;2022-10-16T13:27:05;20.50;99.90
13123;DHT22;6627;50.920;12.050;2022-10-16T13:29:41;20.60;99.90
13123;DHT22;6627;50.920;12.050;2022-10-16T13:32:11;20.70;99.90
13123;DHT22;6627;50.920;12.050;2022-10-16T13:34:44;20.60;99.90
13123;DHT22;6627;50.920;12.050;2022-10-16T13:37:20;20.80;99.90
13123;DHT22;6627;50.920;12.050;2022-10-16T13:39:49;20.90;99.90
13123;DHT22;6627;50.920;12.050;2022-10-16T13:42:22;21.00;99.90
13123;DHT22;6627;50.920;12.050;2022-10-16T13:44:54;21.00;99.90
13123;DHT22;6627;50.920;12.050;2022-10-16T13:47:25;21.10;99.90
13123;DHT22;6627;50.920;12.050;2022-10-16T13:50:02;21.20;99.90
13123;DHT22;6627;50.920;12.050;2022-10-16T13:52:31;21.30;99.90
13123;DHT22;6627;50.920;12.050;2022-10-16T13:54:59;21.40;99.90
13123;DHT22;6627;50.920;12.050;2022-10-16T13:57:27;21.50;99.90
13123;DHT22;6627;50.920;12.050;2022-10-16T13:59:55;21.30;99.90
13123;DHT22;6627;50.920;12.050;2022-10-16T14:02:27;21.40;99.90
13123;DHT22;6627;50.920;12.050;2022-10-16T14:05:01;21.50;99.90
13123;DHT22;6627;50.920;12.050;2022-10-16T14:07:31;21.60;99.90
13123;DHT22;6627;50.920;12.050;2022-10-16T14:10:03;21.60;99.90
13123;DHT22;6627;50.920;12.050;2022-10-16T14:12:33;21.60;99.90
13123;DHT22;6627;50.920;12.050;2022-10-16T14:15:01;21.60;99.90
13123;DHT22;6627;50.920;12.050;2022-10-16T14:17:33;21.70;99.90
13123;DHT22;6627;50.920;12.050;2022-10-16T14:20:05;21.60;99.90
13123;DHT22;6627;50.920;12.050;2022-10-16T14:22:42;21.60;99.90
13123;DHT22;6627;50.920;12.050;2022-10-16T14:25:25;21.60;99.90
13123;DHT22;6627;50.920;12.050;2022-10-16T14:27:59;21.60;99.90
13123;DHT22;6627;50.920;12.050;2022-10-16T14:30:29;21.40;99.90
13123;DHT22;6627;50.920;12.050;2022-10-16T14:33:01;21.40;99.90
13123;DHT22;6627;50.920;12.050;2022-10-16T14:35:32;21.40;99.90
13123;DHT22;6627;50.920;12.050;2022-10-16T14:38:02;21.30;99.90
13123;DHT22;6627;50.920;12.050;2022-10-16T14:40:33;21.20;99.90
13123;DHT22;6627;50.920;12.050;2022-10-16T14:43:03;21.20;99.90
13123;DHT22;6627;50.920;12.050;2022-10-16T14:45:34;21.10;99.90
13123;DHT22;6627;50.920;12.050;2022-10-16T14:48:17;21.10;99.90
13123;DHT22;6627;50.920;12.050;2022-10-16T14:50:49;21.10;99.90
13123;DHT22;6627;50.920;12.050;2022-10-16T14:53:19;21.10;99.90
13123;DHT22;6627;50.920;12.050;2022-10-16T14:55:47;21.10;99.90
13123;DHT22;6627;50.920;12.050;2022-10-16T14:58:16;21.10;99.90
13123;DHT22;6627;50.920;12.050;2022-10-16T15:00:46;21.10;99.90
13123;DHT22;6627;50.920;12.050;2022-10-16T15:03:15;21.00;99.90
13123;DHT22;6627;50.920;12.050;2022-10-16T15:05:42;20.90;99.90
13123;DHT22;6627;50.920;12.050;2022-10-16T15:08:10;20.90;99.90
13123;DHT22;6627;50.920;12.050;2022-10-16T15:10:40;20.80;99.90
13123;DHT22;6627;50.920;12.050;2022-10-16T15:13:12;20.80;99.90
13123;DHT22;6627;50.920;12.050;2022-10-16T15:15:42;20.70;99.90
13123;DHT22;6627;50.920;12.050;2022-10-16T15:18:10;20.60;99.90
13123;DHT22;6627;50.920;12.050;2022-10-16T15:20:41;20.50;99.90
13123;DHT22;6627;50.920;12.050;2022-10-16T15:23:14;20.50;99.90
13123;DHT22;6627;50.920;12.050;2022-10-16T15:25:51;20.60;99.90
13123;DHT22;6627;50.920;12.050;2022-10-16T15:28:20;20.50;99.90
13123;DHT22;6627;50.920;12.050;2022-10-16T15:30:50;20.40;99.90
13123;DHT22;6627;50.920;12.050;2022-10-16T15:33:20;20.40;99.90
13123;DHT22;6627;50.920;12.050;2022-10-16T15:35:51;20.40;99.90
13123;DHT22;6627;50.920;12.050;2022-10-16T15:38:20;20.50;99.90
13123;DHT22;6627;50.920;12.050;2022-10-16T15:40:50;20.30;99.90
13123;DHT22;6627;50.920;12.050;2022-10-16T15:43:17;19.90;99.90
13123;DHT22;6627;50.920;12.050;2022-10-16T15:45:58;20.00;99.90
13123;DHT22;6627;50.920;12.050;2022-10-16T15:48:27;20.20;99.90
13123;DHT22;6627;50.920;12.050;2022-10-16T15:50:56;19.80;99.90
13123;DHT22;6627;50.920;12.050;2022-10-16T15:53:24;19.40;99.90
13123;DHT22;6627;50.920;12.050;2022-10-16T15:55:51;19.50;99.90
13123;DHT22;6627;50.920;12.050;2022-10-16T15:58:18;19.10;99.90
13123;DHT22;6627;50.920;12.050;2022-10-16T16:00:54;18.90;99.90
13123;DHT22;6627;50.920;12.050;2022-10-16T16:03:22;19.00;99.90
13123;DHT22;6627;50.920;12.050;2022-10-16T16:05:49;18.70;99.90
13123;DHT22;6627;50.920;12.050;2022-10-16T16:08:19;18.40;99.90
13123;DHT22;6627;50.920;12.050;2022-10-16T16:10:57;18.50;99.90